createdAt,value
2022-07-27T00:01:51.430Z,96650.25
2022-07-27T00:04:19.266Z,96658.47
2022-07-27T00:06:46.685Z,96665.56
2022-07-27T00:09:13.977Z,96680.97
2022-07-27T00:11:40.921Z,96677.53
2022-07-27T00:14:07.629Z,96675.31
2022-07-27T00:16:34.483Z,96682.38
2022-07-27T00:19:01.207Z,96685.47
2022-07-27T00:21:28.017Z,96699.63
2022-07-27T00:23:55.655Z,96716.56
2022-07-27T00:26:22.578Z,96713.50
2022-07-27T00:28:50.117Z,96717.84
2022-07-27T00:31:17.269Z,96725.31
2022-07-27T00:33:46.556Z,96721.84
2022-07-27T00:36:15.519Z,96719.19
2022-07-27T00:38:42.217Z,96720.41
2022-07-27T00:41:08.959Z,96733.03
2022-07-27T00:43:56.455Z,96740.19
2022-07-27T00:46:25.002Z,96746.63
2022-07-27T00:48:53.573Z,96758.38
2022-07-27T00:51:21.786Z,96762.38
2022-07-27T00:53:49.425Z,96773.41
2022-07-27T00:56:16.641Z,96782.78
2022-07-27T00:58:47.533Z,96796.09
2022-07-27T01:01:14.621Z,96812.50
2022-07-27T01:03:41.431Z,96828.53
2022-07-27T01:06:09.078Z,96833.97
2022-07-27T01:08:37.090Z,96854.66
2022-07-27T01:11:04.444Z,96858.97
2022-07-27T01:13:31.160Z,96864.09
2022-07-27T01:15:58.949Z,96867.22
2022-07-27T01:18:32.038Z,96862.94
2022-07-27T01:21:00.406Z,96869.19
2022-07-27T01:23:28.317Z,96871.56
2022-07-27T01:25:55.376Z,96853.94
2022-07-27T01:28:22.103Z,96860.16
2022-07-27T01:30:48.950Z,96878.97
2022-07-27T01:33:16.192Z,96878.97
2022-07-27T01:35:42.914Z,96882.06
2022-07-27T01:38:11.440Z,96909.06
2022-07-27T01:40:39.827Z,96925.09
2022-07-27T01:43:07.024Z,96938.38
2022-07-27T01:45:34.394Z,96943.84
2022-07-27T01:48:01.277Z,96961.06
2022-07-27T01:50:28.053Z,96961.91
2022-07-27T01:52:54.701Z,96962.75
2022-07-27T01:55:21.370Z,96970.59
2022-07-27T01:57:48.184Z,96977.97
2022-07-27T02:00:15.176Z,96993.97
2022-07-27T02:02:41.897Z,97007.25
2022-07-27T02:05:12.265Z,97027.19
2022-07-27T02:07:42.694Z,97048.69
2022-07-27T02:10:12.768Z,97078.75
2022-07-27T02:12:39.866Z,97101.41
2022-07-27T02:15:16.142Z,97121.75
2022-07-27T02:17:47.025Z,97128.00
2022-07-27T02:20:16.866Z,97141.69
2022-07-27T02:22:44.564Z,97140.13
2022-07-27T02:25:13.764Z,97159.66
2022-07-27T02:27:41.842Z,97146.38
2022-07-27T02:30:10.306Z,97156.13
2022-07-27T02:32:37.065Z,97168.25
2022-07-27T02:35:19.070Z,97176.81
2022-07-27T02:37:48.721Z,97190.88
2022-07-27T02:40:17.697Z,97209.63
2022-07-27T02:42:45.867Z,97226.03
2022-07-27T02:45:13.616Z,97235.41
2022-07-27T02:47:41.644Z,97248.69
2022-07-27T02:50:09.900Z,97266.66
2022-07-27T02:52:37.580Z,97276.81
2022-07-27T02:55:05.224Z,97295.56
2022-07-27T02:57:34.430Z,97326.81
2022-07-27T03:00:02.678Z,97333.84
2022-07-27T03:02:29.453Z,97349.88
2022-07-27T03:04:56.062Z,97361.19
2022-07-27T03:07:22.729Z,97364.28
2022-07-27T03:09:52.450Z,97378.34
2022-07-27T03:12:19.408Z,97382.25
2022-07-27T03:14:47.025Z,97404.91
2022-07-27T03:17:13.711Z,97413.84
2022-07-27T03:19:40.412Z,97420.88
2022-07-27T03:22:07.085Z,97423.59
2022-07-27T03:24:33.732Z,97429.00
2022-07-27T03:27:00.492Z,97425.88
2022-07-27T03:29:28.166Z,97433.69
2022-07-27T03:31:56.658Z,97433.69
2022-07-27T03:34:23.456Z,97440.72
2022-07-27T03:36:50.634Z,97443.44
2022-07-27T03:39:17.528Z,97450.09
2022-07-27T03:41:44.189Z,97447.72
2022-07-27T03:44:13.134Z,97457.47
2022-07-27T03:46:40.511Z,97456.31
2022-07-27T03:49:14.480Z,97464.91
2022-07-27T03:51:42.171Z,97467.91
2022-07-27T03:54:08.919Z,97457.78
2022-07-27T03:56:35.756Z,97461.69
2022-07-27T03:59:02.406Z,97466.31
2022-07-27T04:01:29.202Z,97476.50
2022-07-27T04:03:55.982Z,97485.06
2022-07-27T04:06:22.673Z,97490.94
2022-07-27T04:08:53.940Z,97503.88
2022-07-27T04:11:24.261Z,97504.66
2022-07-27T04:13:55.731Z,97510.13
2022-07-27T04:16:22.568Z,97516.78
2022-07-27T04:18:49.417Z,97535.88
2022-07-27T04:21:16.183Z,97546.06
2022-07-27T04:23:42.870Z,97551.94
2022-07-27T04:26:09.605Z,97562.53
2022-07-27T04:28:36.227Z,97578.16
2022-07-27T04:31:02.976Z,97582.88
2022-07-27T04:33:29.644Z,97593.44
2022-07-27T04:35:56.385Z,97599.69
2022-07-27T04:38:23.053Z,97604.81
2022-07-27T04:40:51.072Z,97614.94
2022-07-27T04:43:19.371Z,97622.78
2022-07-27T04:45:47.828Z,97625.91
2022-07-27T04:48:14.729Z,97628.28
2022-07-27T04:50:43.103Z,97640.00
2022-07-27T04:53:10.720Z,97649.41
2022-07-27T04:55:37.914Z,97664.25
2022-07-27T04:58:04.568Z,97676.00
2022-07-27T05:00:31.174Z,97679.97
2022-07-27T05:02:59.962Z,97685.03
2022-07-27T05:05:26.580Z,97687.75
2022-07-27T05:07:55.778Z,97701.03
2022-07-27T05:10:22.565Z,97699.47
2022-07-27T05:12:50.139Z,97710.41
2022-07-27T05:15:17.421Z,97712.72
2022-07-27T05:17:44.210Z,97718.94
2022-07-27T05:20:11.692Z,97723.66
2022-07-27T05:22:39.997Z,97723.66
2022-07-27T05:25:08.219Z,97726.84
2022-07-27T05:27:36.157Z,97759.59
2022-07-27T05:30:06.275Z,97758.03
2022-07-27T05:32:32.929Z,97762.38
2022-07-27T05:34:59.765Z,97750.69
2022-07-27T05:37:26.437Z,97765.88
2022-07-27T05:39:53.097Z,97793.22
2022-07-27T05:42:19.717Z,97794.81
2022-07-27T05:44:47.833Z,97806.16
2022-07-27T05:47:14.554Z,97807.38
2022-07-27T05:49:41.601Z,97813.72
2022-07-27T05:52:08.489Z,97829.00
2022-07-27T05:54:35.157Z,97849.72
2022-07-27T05:57:01.822Z,97852.84
2022-07-27T05:59:29.501Z,97870.78
2022-07-27T06:01:56.107Z,97889.53
2022-07-27T06:04:22.783Z,97879.41
2022-07-27T06:07:07.785Z,97896.66
2022-07-27T06:09:36.378Z,97894.31
2022-07-27T06:12:03.078Z,97897.50
2022-07-27T06:14:31.781Z,97897.50
2022-07-27T06:17:01.451Z,97913.16
2022-07-27T06:19:35.993Z,97915.56
2022-07-27T06:22:03.632Z,97930.91
2022-07-27T06:24:30.225Z,97959.47
2022-07-27T06:26:56.890Z,97975.50
2022-07-27T06:29:23.524Z,97989.13
2022-07-27T06:31:50.278Z,97978.25
2022-07-27T06:34:17.017Z,97968.19
2022-07-27T06:36:45.226Z,97984.53
2022-07-27T06:39:13.472Z,97981.31
2022-07-27T06:41:40.405Z,97972.78
2022-07-27T06:44:07.092Z,97982.16
2022-07-27T06:46:34.498Z,98004.03
2022-07-27T06:49:01.216Z,97996.25
2022-07-27T06:51:27.953Z,97998.63
2022-07-27T06:53:54.587Z,98001.03
2022-07-27T06:56:22.481Z,98015.09
2022-07-27T06:58:49.825Z,98022.94
2022-07-27T07:01:16.606Z,98037.72
2022-07-27T07:03:43.761Z,98026.50
2022-07-27T07:06:10.501Z,98040.13
2022-07-27T07:08:37.234Z,98053.47
2022-07-27T07:11:03.928Z,98038.72
2022-07-27T07:13:35.266Z,98052.88
2022-07-27T07:16:04.276Z,98070.84
2022-07-27T07:18:30.917Z,98070.84
2022-07-27T07:20:57.696Z,98099.78
2022-07-27T07:23:24.318Z,98084.94
2022-07-27T07:25:51.033Z,98102.22
2022-07-27T07:28:22.183Z,98110.84
2022-07-27T07:30:49.534Z,98120.25
2022-07-27T07:33:16.644Z,98127.31
2022-07-27T07:36:13.250Z,98140.19
2022-07-27T07:38:30.352Z,98135.94
2022-07-27T07:40:59.398Z,98148.91
2022-07-27T07:43:29.526Z,98149.25
2022-07-27T07:45:59.614Z,98148.06
2022-07-27T07:48:26.296Z,98169.56
2022-07-27T07:50:53.974Z,98182.84
2022-07-27T07:53:24.404Z,98182.84
2022-07-27T07:55:56.818Z,98185.25
2022-07-27T07:58:23.468Z,98200.09
2022-07-27T08:00:50.237Z,98197.81
2022-07-27T08:03:17.325Z,98197.47
2022-07-27T08:05:44.146Z,98194.03
2022-07-27T08:08:10.829Z,98195.69
2022-07-27T08:10:37.891Z,98200.41
2022-07-27T08:13:04.904Z,98211.34
2022-07-27T08:15:35.931Z,98222.22
2022-07-27T08:18:05.000Z,98233.09
2022-07-27T08:20:31.762Z,98240.81
2022-07-27T08:22:58.413Z,98246.25
2022-07-27T08:25:25.252Z,98241.63
2022-07-27T08:27:51.864Z,98252.19
2022-07-27T08:30:19.983Z,98245.13
2022-07-27T08:32:50.856Z,98246.66
2022-07-27T08:35:21.904Z,98242.47
2022-07-27T08:37:49.170Z,98244.38
2022-07-27T08:43:05.631Z,98252.94
2022-07-27T08:45:33.630Z,98254.13
2022-07-27T08:48:01.653Z,98262.78
2022-07-27T08:50:30.621Z,98261.59
2022-07-27T08:53:12.101Z,98262.06
2022-07-27T08:55:43.718Z,98280.78
2022-07-27T08:58:11.654Z,98272.25
2022-07-27T09:00:42.900Z,98282.88
2022-07-27T09:03:18.996Z,98276.38
2022-07-27T09:05:57.928Z,98281.53
2022-07-27T09:08:28.800Z,98285.09
2022-07-27T09:10:59.509Z,98273.44
2022-07-27T09:13:30.432Z,98293.97
2022-07-27T09:16:17.543Z,98285.38
2022-07-27T09:18:45.450Z,98282.28
2022-07-27T09:21:23.464Z,98296.41
2022-07-27T09:23:59.181Z,98291.78
2022-07-27T09:26:35.131Z,98295.75
2022-07-27T09:29:03.434Z,98300.50
2022-07-27T09:31:30.865Z,98295.88
2022-07-27T09:34:02.790Z,98313.88
2022-07-27T09:36:30.984Z,98322.44
2022-07-27T09:39:07.056Z,98331.03
2022-07-27T09:41:49.298Z,98326.44
2022-07-27T09:44:34.546Z,98313.63
2022-07-27T09:47:20.818Z,98339.13
2022-07-27T09:49:50.657Z,98344.63
2022-07-27T09:52:29.069Z,98347.31
2022-07-27T09:55:03.345Z,98357.91
2022-07-27T09:57:29.948Z,98360.22
2022-07-27T10:00:16.103Z,98361.03
2022-07-27T10:02:44.138Z,98362.56
2022-07-27T10:05:11.143Z,98353.22
2022-07-27T10:07:39.872Z,98347.34
2022-07-27T10:10:07.142Z,98349.34
2022-07-27T10:12:33.841Z,98349.41
2022-07-27T10:15:00.710Z,98361.16
2022-07-27T10:17:28.108Z,98363.47
2022-07-27T10:19:56.985Z,98364.38
2022-07-27T10:22:49.711Z,98367.63
2022-07-27T10:25:16.341Z,98358.72
2022-07-27T10:27:46.801Z,98363.06
2022-07-27T10:30:15.654Z,98370.94
2022-07-27T10:32:44.864Z,98378.41
2022-07-27T10:35:36.765Z,98376.47
2022-07-27T10:38:15.659Z,98375.34
2022-07-27T10:40:43.861Z,98383.97
2022-07-27T10:43:16.568Z,98390.25
2022-07-27T10:46:01.886Z,98403.19
2022-07-27T10:48:47.822Z,98421.16
2022-07-27T10:51:19.111Z,98418.53
2022-07-27T10:54:11.540Z,98413.13
2022-07-27T10:56:47.466Z,98432.41
2022-07-27T10:59:14.336Z,98431.63
2022-07-27T11:02:01.447Z,98425.34
2022-07-27T11:04:28.169Z,98447.38
2022-07-27T11:07:24.130Z,98441.84
2022-07-27T11:10:03.627Z,98443.41
2022-07-27T11:12:31.380Z,98452.88
2022-07-27T11:15:01.033Z,98451.31
2022-07-27T11:17:57.541Z,98462.31
2022-07-27T11:20:24.011Z,98473.25
2022-07-27T11:23:40.777Z,98470.91
2022-07-27T11:25:37.566Z,98470.94
2022-07-27T11:28:09.924Z,98470.16
2022-07-27T11:30:37.320Z,98461.53
2022-07-27T11:33:04.931Z,98470.22
2022-07-27T11:35:31.588Z,98465.53
2022-07-27T11:38:03.443Z,98482.44
2022-07-27T11:43:45.173Z,98490.66
2022-07-27T11:46:26.635Z,98496.59
2022-07-27T11:49:06.725Z,98497.75
2022-07-27T11:51:36.663Z,98504.06
2022-07-27T11:54:10.595Z,98511.91
2022-07-27T11:56:39.645Z,98522.91
2022-07-27T11:59:12.676Z,98515.47
2022-07-27T12:01:45.629Z,98522.13
2022-07-27T12:04:18.834Z,98526.03
2022-07-27T12:07:02.218Z,98528.38
2022-07-27T12:09:36.807Z,98528.38
2022-07-27T12:12:07.841Z,98527.19
2022-07-27T12:14:40.428Z,98535.41
2022-07-27T12:17:10.917Z,98536.22
2022-07-27T12:19:38.533Z,98534.69
2022-07-27T12:22:05.573Z,98536.28
2022-07-27T12:24:41.345Z,98537.13
2022-07-27T12:27:13.922Z,98535.63
2022-07-27T12:29:59.346Z,98532.41
2022-07-27T12:32:31.222Z,98540.25
2022-07-27T12:34:58.277Z,98543.81
2022-07-27T12:37:33.823Z,98547.34
2022-07-27T12:40:00.676Z,98545.38
2022-07-27T12:42:35.490Z,98554.47
2022-07-27T12:45:13.501Z,98551.34
2022-07-27T12:47:41.083Z,98549.75
2022-07-27T12:50:09.632Z,98556.06
2022-07-27T12:52:38.932Z,98552.91
2022-07-27T12:55:11.932Z,98561.19
2022-07-27T12:57:55.352Z,98559.22
2022-07-27T13:00:30.874Z,98557.63
2022-07-27T13:03:00.918Z,98554.03
2022-07-27T13:05:27.806Z,98562.34
2022-07-27T13:07:54.542Z,98560.81
2022-07-27T13:10:22.297Z,98562.38
2022-07-27T13:12:49.771Z,98562.44
2022-07-27T13:15:17.434Z,98569.16
2022-07-27T13:17:45.141Z,98569.59
2022-07-27T13:20:13.601Z,98562.94
2022-07-27T13:22:42.045Z,98557.88
2022-07-27T13:25:15.320Z,98569.66
2022-07-27T13:27:44.459Z,98577.53
2022-07-27T13:30:13.656Z,98581.50
2022-07-27T13:32:41.248Z,98583.53
2022-07-27T13:35:09.775Z,98576.84
2022-07-27T13:37:38.981Z,98587.06
2022-07-27T13:40:06.433Z,98583.16
2022-07-27T13:42:33.061Z,98598.09
2022-07-27T13:45:10.027Z,98602.03
2022-07-27T13:47:39.706Z,98612.66
2022-07-27T13:50:15.057Z,98631.16
2022-07-27T13:52:46.048Z,98633.47
2022-07-27T13:55:14.550Z,98639.78
2022-07-27T13:57:41.414Z,98657.94
2022-07-27T14:00:08.809Z,98679.59
2022-07-27T14:02:35.485Z,98694.16
2022-07-27T14:05:04.372Z,98698.13
2022-07-27T14:07:32.996Z,98709.53
2022-07-27T14:10:18.688Z,98719.31
2022-07-27T14:12:45.373Z,98724.00
2022-07-27T14:15:12.191Z,98723.94
2022-07-27T14:17:39.045Z,98719.97
2022-07-27T14:20:06.602Z,98726.66
2022-07-27T14:22:33.263Z,98731.75
2022-07-27T14:24:59.959Z,98730.94
2022-07-27T14:27:26.653Z,98731.66
2022-07-27T14:30:08.300Z,98734.81
2022-07-27T14:32:35.679Z,98732.44
2022-07-27T14:35:02.988Z,98734.84
2022-07-27T14:37:29.657Z,98729.72
2022-07-27T14:39:56.685Z,98731.28
2022-07-27T14:42:25.036Z,98735.69
2022-07-27T14:44:51.864Z,98734.19
2022-07-27T14:47:20.493Z,98737.38
2022-07-27T14:49:47.321Z,98739.75
2022-07-27T14:52:14.198Z,98739.75
2022-07-27T14:54:41.748Z,98741.72
2022-07-27T14:57:08.553Z,98740.13
2022-07-27T14:59:35.391Z,98748.03
2022-07-27T15:02:02.997Z,98738.28
2022-07-27T15:04:29.871Z,98741.44
2022-07-27T15:06:59.960Z,98743.06
2022-07-27T15:09:28.532Z,98742.31
2022-07-27T15:11:55.411Z,98736.84
2022-07-27T15:14:22.658Z,98749.44
2022-07-27T15:16:50.892Z,98743.13
2022-07-27T15:19:18.360Z,98744.31
2022-07-27T15:21:47.083Z,98743.91
2022-07-27T15:24:14.441Z,98753.41
2022-07-27T15:26:41.326Z,98748.72
2022-07-27T15:29:10.126Z,98750.28
2022-07-27T15:31:43.184Z,98753.44
2022-07-27T15:34:10.069Z,98753.44
2022-07-27T15:36:43.630Z,98759.69
2022-07-27T15:39:12.546Z,98755.69
2022-07-27T15:41:39.526Z,98751.59
2022-07-27T15:44:07.159Z,98756.25
2022-07-27T15:46:34.671Z,98763.25
2022-07-27T15:49:04.705Z,98757.69
2022-07-27T15:51:32.519Z,98765.63
2022-07-27T15:53:59.218Z,98764.84
2022-07-27T15:56:25.909Z,98770.00
2022-07-27T15:58:52.784Z,98770.00
2022-07-27T16:01:21.066Z,98768.00
2022-07-27T16:03:49.031Z,98762.34
2022-07-27T16:06:16.460Z,98755.66
2022-07-27T16:08:45.821Z,98777.44
2022-07-27T16:11:12.524Z,98774.41
2022-07-27T16:13:39.302Z,98774.44
2022-07-27T16:16:24.593Z,98791.97
2022-07-27T16:18:53.680Z,98785.25
2022-07-27T16:21:23.377Z,98787.97
2022-07-27T16:23:54.117Z,98788.66
2022-07-27T16:26:21.872Z,98793.38
2022-07-27T16:28:50.635Z,98802.00
2022-07-27T16:31:20.414Z,98798.91
2022-07-27T16:33:49.024Z,98796.13
2022-07-27T16:36:21.781Z,98803.59
2022-07-27T16:38:51.975Z,98793.72
2022-07-27T16:41:20.902Z,98804.25
2022-07-27T16:43:47.971Z,98796.22
2022-07-27T16:46:16.787Z,98813.59
2022-07-27T16:48:43.699Z,98805.59
2022-07-27T16:51:15.161Z,98807.16
2022-07-27T16:53:44.148Z,98808.72
2022-07-27T16:56:11.098Z,98808.13
2022-07-27T16:58:38.497Z,98816.25
2022-07-27T17:01:06.168Z,98819.03
2022-07-27T17:03:33.514Z,98821.75
2022-07-27T17:06:05.614Z,98820.88
2022-07-27T17:08:33.388Z,98834.59
2022-07-27T17:11:01.058Z,98839.34
2022-07-27T17:13:33.663Z,98847.22
2022-07-27T17:16:02.539Z,98835.38
2022-07-27T17:18:29.630Z,98848.13
2022-07-27T17:20:56.296Z,98843.41
2022-07-27T17:23:23.360Z,98849.31
2022-07-27T17:25:50.012Z,98855.22
2022-07-27T17:28:17.162Z,98846.53
2022-07-27T17:30:43.890Z,98851.28
2022-07-27T17:33:10.609Z,98848.94
2022-07-27T17:35:37.548Z,98863.53
2022-07-27T17:38:06.697Z,98862.75
2022-07-27T17:40:34.808Z,98863.13
2022-07-27T17:43:01.851Z,98858.41
2022-07-27T17:45:28.719Z,98869.06
2022-07-27T17:47:56.150Z,98863.91
2022-07-27T17:50:22.888Z,98867.84
2022-07-27T17:52:49.599Z,98868.56
2022-07-27T17:55:16.362Z,98881.19
2022-07-27T17:57:45.373Z,98880.34
2022-07-27T18:00:12.692Z,98888.97
2022-07-27T18:02:39.358Z,98884.63
2022-07-27T18:05:06.706Z,98886.53
2022-07-27T18:07:39.024Z,98890.81
2022-07-27T18:10:08.361Z,98903.00
2022-07-27T18:12:35.703Z,98910.88
2022-07-27T18:15:21.035Z,98909.66
2022-07-27T18:17:47.624Z,98912.75
2022-07-27T18:20:14.383Z,98917.09
2022-07-27T18:22:41.145Z,98918.75
2022-07-27T18:25:09.204Z,98923.47
2022-07-27T18:27:36.434Z,98933.69
2022-07-27T18:30:05.291Z,98922.63
2022-07-27T18:32:32.953Z,98933.53
2022-07-27T18:34:59.589Z,98929.19
2022-07-27T18:37:26.333Z,98938.22
2022-07-27T18:39:53.183Z,98938.16
2022-07-27T18:42:20.018Z,98945.09
2022-07-27T18:44:47.473Z,98931.59
2022-07-27T18:47:14.799Z,98926.63
2022-07-27T18:49:41.418Z,98921.84
2022-07-27T18:52:08.128Z,98913.84
2022-07-27T18:54:34.891Z,98895.97
2022-07-27T18:57:01.606Z,98888.41
2022-07-27T18:59:28.214Z,98872.97
2022-07-27T19:01:54.986Z,98875.63
2022-07-27T19:04:21.761Z,98870.34
2022-07-27T19:06:51.426Z,98869.66
2022-07-27T19:09:18.205Z,98873.00
2022-07-27T19:11:44.896Z,98882.69
2022-07-27T19:14:11.610Z,98902.56
2022-07-27T19:16:38.414Z,98909.06
2022-07-27T19:19:07.765Z,98900.19
2022-07-27T19:21:38.313Z,98897.31
2022-07-27T19:24:05.200Z,98891.97
2022-07-27T19:26:31.933Z,98890.50
2022-07-27T19:28:58.915Z,98888.25
2022-07-27T19:31:25.724Z,98879.19
2022-07-27T19:33:53.085Z,98870.97
2022-07-27T19:36:23.200Z,98866.94
2022-07-27T19:38:50.785Z,98869.56
2022-07-27T19:41:18.225Z,98867.69
2022-07-27T19:43:44.975Z,98869.25
2022-07-27T19:46:12.584Z,98880.06
2022-07-27T19:48:40.213Z,98875.78
2022-07-27T19:51:07.473Z,98885.53
2022-07-27T19:53:35.665Z,98886.25
2022-07-27T19:56:03.025Z,98887.03
2022-07-27T19:58:30.044Z,98881.94
2022-07-27T20:00:56.907Z,98871.78
2022-07-27T20:03:24.439Z,98872.75
2022-07-27T20:05:51.181Z,98866.91
2022-07-27T20:08:18.022Z,98869.91
2022-07-27T20:10:45.789Z,98872.59
2022-07-27T20:13:14.522Z,98875.50
2022-07-27T20:15:41.269Z,98879.81
2022-07-27T20:18:08.100Z,98880.31
2022-07-27T20:20:34.936Z,98868.28
2022-07-27T20:23:01.550Z,98864.47
2022-07-27T20:25:28.159Z,98865.84
2022-07-27T20:27:54.921Z,98867.91
2022-07-27T20:30:21.720Z,98865.88
2022-07-27T20:32:49.994Z,98861.00
2022-07-27T20:35:17.155Z,98861.38
2022-07-27T20:37:45.515Z,98847.16
2022-07-27T20:40:12.791Z,98842.16
2022-07-27T20:42:43.517Z,98831.72
2022-07-27T20:45:14.749Z,98823.41
2022-07-27T20:47:42.757Z,98825.00
2022-07-27T20:50:11.848Z,98818.31
2022-07-27T20:52:40.476Z,98821.72
2022-07-27T20:55:08.947Z,98812.06
2022-07-27T20:57:35.998Z,98811.03
2022-07-27T21:00:03.158Z,98806.94
2022-07-27T21:02:29.855Z,98804.78
2022-07-27T21:04:57.378Z,98794.91
2022-07-27T21:07:25.676Z,98803.69
2022-07-27T21:09:52.317Z,98797.31
2022-07-27T21:12:19.032Z,98803.78
2022-07-27T21:14:45.681Z,98786.03
2022-07-27T21:17:12.417Z,98783.22
2022-07-27T21:19:39.116Z,98783.66
2022-07-27T21:22:05.913Z,98775.25
2022-07-27T21:24:32.753Z,98786.38
2022-07-27T21:27:04.410Z,98792.41
2022-07-27T21:29:32.118Z,98798.63
2022-07-27T21:31:59.095Z,98802.25
2022-07-27T21:34:25.919Z,98806.53
2022-07-27T21:36:52.542Z,98814.44
2022-07-27T21:39:20.195Z,98812.63
2022-07-27T21:41:46.955Z,98809.16
2022-07-27T21:44:14.269Z,98821.41
2022-07-27T21:46:41.396Z,98807.44
2022-07-27T21:49:10.354Z,98754.25
2022-07-27T21:51:37.269Z,98744.41
2022-07-27T21:54:04.278Z,98761.53
2022-07-27T21:56:31.016Z,98765.69
2022-07-27T21:59:08.051Z,98768.88
2022-07-27T22:01:34.794Z,98771.59
2022-07-27T22:04:02.044Z,98768.22
2022-07-27T22:06:28.832Z,98782.00
2022-07-27T22:08:55.566Z,98789.69
2022-07-27T22:11:22.238Z,98789.03
2022-07-27T22:13:48.930Z,98793.53
2022-07-27T22:16:16.239Z,98796.19
2022-07-27T22:18:42.886Z,98800.88
2022-07-27T22:21:09.614Z,98791.63
2022-07-27T22:23:36.321Z,98790.09
2022-07-27T22:26:02.957Z,98746.16
2022-07-27T22:28:29.612Z,98742.44
2022-07-27T22:31:00.027Z,98736.81
2022-07-27T22:33:44.402Z,98686.75
2022-07-27T22:36:12.088Z,98696.28
2022-07-27T22:38:39.271Z,98642.06
2022-07-27T22:41:05.878Z,98592.88
2022-07-27T22:43:32.688Z,98610.31
2022-07-27T22:46:00.341Z,98580.88
2022-07-27T22:48:27.863Z,98591.06
2022-07-27T22:50:54.605Z,98579.81
2022-07-27T22:53:21.260Z,98567.09
2022-07-27T22:55:48.113Z,98576.16
2022-07-27T22:58:15.239Z,98562.34
2022-07-27T23:00:44.459Z,98573.38
2022-07-27T23:03:11.168Z,98566.38
2022-07-27T23:05:38.059Z,98549.47
2022-07-27T23:08:05.144Z,98556.91
2022-07-27T23:10:46.966Z,98545.84
2022-07-27T23:13:15.007Z,98539.41
2022-07-27T23:15:42.792Z,98525.88
2022-07-27T23:18:09.570Z,98529.69
2022-07-27T23:20:36.258Z,98544.22
2022-07-27T23:23:03.670Z,98531.50
2022-07-27T23:25:39.129Z,98542.94
2022-07-27T23:28:06.061Z,98527.53
2022-07-27T23:30:32.893Z,98519.00
2022-07-27T23:32:59.624Z,98538.00
2022-07-27T23:35:26.520Z,98546.66
2022-07-27T23:37:53.177Z,98546.31
2022-07-27T23:40:19.772Z,98547.00
2022-07-27T23:42:46.478Z,98556.38
2022-07-27T23:45:14.226Z,98554.31
2022-07-27T23:47:41.797Z,98546.97
2022-07-27T23:50:09.645Z,98558.41
2022-07-27T23:52:36.565Z,98562.25
2022-07-27T23:55:03.906Z,98570.69
2022-07-27T23:57:30.695Z,98578.38
2022-07-27T23:59:57.367Z,98573.06
